Главная страница
METAR-TAF:

METAR-TAF

Аэропорты :

Шоуду

Пекин, Китай

широта: 39-56N, долгота: 116-17E, высота над уровнем моря: 55 м

Текущие метеонаблюдения

Эта сводка был подготовлена 24 минут назад, в 07:00 UTC
Ветер 6 Узел от южный, изменяющийся между юго-восточный и юго-западный
Температура 12°C
Влажность 62%
Давление 1020 hPa
Видимость: 3000 м
мгла

METAR: ZBAA 130700Z 17003MPS 140V230 3000 HZ NSC 12/05 Q1020 NOSIG

Время: 15:24 (07:24 UTC)

Прогноз

Эта сводка был подготовлена 4 часа и 4 минут назад, в 03:20 UTC
Прогноз действительный с 13-го 06 UTC до 14-го 06 UTC
Ветер 6 Узел от юго-восточный
Видимость: 3000 м
дымка
изменения
С 13-го 17 UTC до 13-го 18 UTC
Видимость: 2400 м
дымка
временами
С 13-го 21 UTC до 14-го 02 UTC
Видимость: 0800 м
туман

TAF: ZBAA 130320Z 1306/1406 14003MPS 3000 BR NSC TX13/1307Z TN01/1322Z BECMG 1317/1318 2400 BR TEMPO 1321/1402 0800 FG

Метеонаблюдения и прогнозы для более 4000 аэропортов (сводки METAR и TAF).

Имеющиеся станции представлены на карте желтыми и красными точками.

Чтобы увидеть название станции, наведите на нее мышь.

Затем щелкните, чтобы увидеть метеонаблюдения и метеопрогнозы.

Управление картой: чтобы увеличить масштаб, щелкните зеленые кнопки с черным крестиком; чтобы уменьшить масштаб, щелкните зеленую кнопку с тире; для просмотра соседних карт щелкайте зеленые стрелки.


METAR-TAF: